Aviation Digital Data Service (ADDS)

Output produced by METARs form (0440 UTC 26 April 2019)
found at http://www.aviationweather.gov/metar/data/
 
METAR text: YPCC 260430Z 07014KT CAVOK 29/25 Q1009
Conditions at: YPCC (COCOS ISL INTL A, AU) observed 0430 UTC 26 April 2019
Temperature: 29.0°C (84°F)
Dewpoint: 25.0°C (77°F) [RH = 79%]
Pressure (altimeter): 29.79 inches Hg (1009.0 mb)
Winds: from the ENE (70 degrees) at 16 MPH (14 knots; 7.2 m/s)
Visibility: 6 or more miles (10+ km)
Ceiling: ceiling and visibility are OK
Clouds: unknown
Weather: no significant weather observed at this time

METAR text: YPCC 260400Z 08013KT 9999 VCSH NSC 28/25 Q1009 RF00.0/000.0 SCT058 BKN066
Conditions at: YPCC (COCOS ISL INTL A, AU) observed 0400 UTC 26 April 2019
Temperature: 28.0°C (82°F)
Dewpoint: 25.0°C (77°F) [RH = 84%]
Pressure (altimeter): 29.79 inches Hg (1009.0 mb)
Winds: from the E (80 degrees) at 15 MPH (13 knots; 6.7 m/s)
Visibility: 6 or more miles (10+ km)
Ceiling: 6600 feet AGL
Clouds: scattered clouds at 5800 feet AGL
broken clouds at 6600 feet AGL
Weather: VCSH  (showers in vicinity)

METAR text: YPCC 260330Z 07013KT CAVOK 28/25 Q1009 BKN165
Conditions at: YPCC (COCOS ISL INTL A, AU) observed 0330 UTC 26 April 2019
Temperature: 28.0°C (82°F)
Dewpoint: 25.0°C (77°F) [RH = 84%]
Pressure (altimeter): 29.79 inches Hg (1009.0 mb)
Winds: from the ENE (70 degrees) at 15 MPH (13 knots; 6.7 m/s)
Visibility: 6 or more miles (10+ km)
Ceiling: 16500 feet AGL
Clouds: broken clouds at 16500 feet AGL
Weather: no significant weather observed at this time

METAR text: YPCC 260300Z 08011KT 9999 FEW044 BKN165 28/25 Q1009 RF00.0/032.8
Conditions at: YPCC (COCOS ISL INTL A, AU) observed 0300 UTC 26 April 2019
Temperature: 28.0°C (82°F)
Dewpoint: 25.0°C (77°F) [RH = 84%]
Pressure (altimeter): 29.79 inches Hg (1009.0 mb)
Winds: from the E (80 degrees) at 13 MPH (11 knots; 5.7 m/s)
Visibility: 6 or more miles (10+ km)
Ceiling: 16500 feet AGL
Clouds: few clouds at 4400 feet AGL
broken clouds at 16500 feet AGL
Weather: no significant weather observed at this time

METAR text: YPCC 260230Z 07008KT 9999 FEW044 BKN175 BKN200 28/24 Q1009 RF00.0/032.8
Conditions at: YPCC (COCOS ISL INTL A, AU) observed 0230 UTC 26 April 2019
Temperature: 28.0°C (82°F)
Dewpoint: 24.0°C (75°F) [RH = 79%]
Pressure (altimeter): 29.79 inches Hg (1009.0 mb)
Winds: from the ENE (70 degrees) at 9 MPH (8 knots; 4.1 m/s)
Visibility: 6 or more miles (10+ km)
Ceiling: 17500 feet AGL
Clouds: few clouds at 4400 feet AGL
broken clouds at 17500 feet AGL
broken clouds at 20000 feet AGL
Weather: no significant weather observed at this time

METAR text: YPCC 260200Z 07007KT CAVOK 28/25 Q1009
Conditions at: YPCC (COCOS ISL INTL A, AU) observed 0200 UTC 26 April 2019
Temperature: 28.0°C (82°F)
Dewpoint: 25.0°C (77°F) [RH = 84%]
Pressure (altimeter): 29.79 inches Hg (1009.0 mb)
Winds: from the ENE (70 degrees) at 8 MPH (7 knots; 3.6 m/s)
Visibility: 6 or more miles (10+ km)
Ceiling: ceiling and visibility are OK
Clouds: unknown
Weather: no significant weather observed at this time

METAR text: YPCC 260130Z 05002KT CAVOK 28/25 Q1009
Conditions at: YPCC (COCOS ISL INTL A, AU) observed 0130 UTC 26 April 2019
Temperature: 28.0°C (82°F)
Dewpoint: 25.0°C (77°F) [RH = 84%]
Pressure (altimeter): 29.79 inches Hg (1009.0 mb)
Winds: from the NE (50 degrees) at 2 MPH (2 knots; 1.0 m/s)
Visibility: 6 or more miles (10+ km)
Ceiling: ceiling and visibility are OK
Clouds: unknown
Weather: no significant weather observed at this time

METAR text: YPCC 260100Z 03003KT CAVOK 27/24 Q1008
Conditions at: YPCC (COCOS ISL INTL A, AU) observed 0100 UTC 26 April 2019
Temperature: 27.0°C (81°F)
Dewpoint: 24.0°C (75°F) [RH = 84%]
Pressure (altimeter): 29.76 inches Hg (1008.0 mb)
Winds: from the NNE (30 degrees) at 3 MPH (3 knots; 1.5 m/s)
Visibility: 6 or more miles (10+ km)
Ceiling: ceiling and visibility are OK
Clouds: unknown
Weather: no significant weather observed at this time

METAR text: YPCC 260030Z 00000KT CAVOK 27/24 Q1008
Conditions at: YPCC (COCOS ISL INTL A, AU) observed 0030 UTC 26 April 2019
Temperature: 27.0°C (81°F)
Dewpoint: 24.0°C (75°F) [RH = 84%]
Pressure (altimeter): 29.76 inches Hg (1008.0 mb)
Winds: calm
Visibility: 6 or more miles (10+ km)
Ceiling: ceiling and visibility are OK
Clouds: unknown
Weather: no significant weather observed at this time

METAR text: YPCC 260000Z AUTO 00000KT 9999 // NCD 26/24 Q1008 RF00.0/032.8
Conditions at: YPCC (COCOS ISL INTL A, AU) observed 0000 UTC 26 April 2019
Temperature: 26.0°C (79°F)
Dewpoint: 24.0°C (75°F) [RH = 89%]
Pressure (altimeter): 29.76 inches Hg (1008.0 mb)
Winds: calm
Visibility: 6 or more miles (10+ km)
Ceiling: at least 12,000 feet AGL
Clouds: sky clear below 12,000 feet AGL
Weather: no significant weather observed at this time

METAR text: YPCC 252330Z AUTO 00000KT 9999 // NCD 26/24 Q1007 RF00.0/032.8
Conditions at: YPCC (COCOS ISL INTL A, AU) observed 2330 UTC 25 April 2019
Temperature: 26.0°C (79°F)
Dewpoint: 24.0°C (75°F) [RH = 89%]
Pressure (altimeter): 29.73 inches Hg (1007.0 mb)
Winds: calm
Visibility: 6 or more miles (10+ km)
Ceiling: at least 12,000 feet AGL
Clouds: sky clear below 12,000 feet AGL
Weather: no significant weather observed at this time

METAR text: YPCC 252300Z AUTO 03003KT 9999 // NCD 26/25 Q1007
Conditions at: YPCC (COCOS ISL INTL A, AU) observed 2300 UTC 25 April 2019
Temperature: 26.0°C (79°F)
Dewpoint: 25.0°C (77°F) [RH = 94%]
Pressure (altimeter): 29.73 inches Hg (1007.0 mb)
Winds: from the NNE (30 degrees) at 3 MPH (3 knots; 1.5 m/s)
Visibility: 6 or more miles (10+ km)
Ceiling: at least 12,000 feet AGL
Clouds: sky clear below 12,000 feet AGL
Weather: no significant weather observed at this time

METAR text: YPCC 252230Z AUTO 06005KT 9999 // SCT100 26/25 Q1007 RF00.0/032.4
Conditions at: YPCC (COCOS ISL INTL A, AU) observed 2230 UTC 25 April 2019
Temperature: 26.0°C (79°F)
Dewpoint: 25.0°C (77°F) [RH = 94%]
Pressure (altimeter): 29.73 inches Hg (1007.0 mb)
Winds: from the ENE (60 degrees) at 6 MPH (5 knots; 2.6 m/s)
Visibility: 6 or more miles (10+ km)
Ceiling: at least 12,000 feet AGL
Clouds: scattered clouds at 10000 feet AGL
Weather: no significant weather observed at this time

METAR text: YPCC 252200Z AUTO 02011KT 9999 // SCT012 26/24 Q1007 RF00.0/032.4
Conditions at: YPCC (COCOS ISL INTL A, AU) observed 2200 UTC 25 April 2019
Temperature: 26.0°C (79°F)
Dewpoint: 24.0°C (75°F) [RH = 89%]
Pressure (altimeter): 29.73 inches Hg (1007.0 mb)
Winds: from the NNE (20 degrees) at 13 MPH (11 knots; 5.7 m/s)
Visibility: 6 or more miles (10+ km)
Ceiling: at least 12,000 feet AGL
Clouds: scattered clouds at 1200 feet AGL
Weather: no significant weather observed at this time

METAR text: YPCC 252130Z AUTO 35008KT 9999 // SCT019 SCT110 27/24 Q1007
Conditions at: YPCC (COCOS ISL INTL A, AU) observed 2130 UTC 25 April 2019
Temperature: 27.0°C (81°F)
Dewpoint: 24.0°C (75°F) [RH = 84%]
Pressure (altimeter): 29.73 inches Hg (1007.0 mb)
Winds: from the N (350 degrees) at 9 MPH (8 knots; 4.1 m/s)
Visibility: 6 or more miles (10+ km)
Ceiling: at least 12,000 feet AGL
Clouds: scattered clouds at 1900 feet AGL
scattered clouds at 11000 feet AGL
Weather: no significant weather observed at this time

METAR text: YPCC 252108Z AUTO 35008KT 9999 // SCT023 SCT036 SCT056 26/24 Q1008
Conditions at: YPCC (COCOS ISL INTL A, AU) observed 2108 UTC 25 April 2019
Temperature: 26.0°C (79°F)
Dewpoint: 24.0°C (75°F) [RH = 89%]
Pressure (altimeter): 29.76 inches Hg (1008.0 mb)
Winds: from the N (350 degrees) at 9 MPH (8 knots; 4.1 m/s)
Visibility: 6 or more miles (10+ km)
Ceiling: at least 12,000 feet AGL
Clouds: scattered clouds at 2300 feet AGL
scattered clouds at 3600 feet AGL
scattered clouds at 5600 feet AGL
Weather: no significant weather observed at this time

METAR text: YPCC 252100Z AUTO 36008KT 9999 // SCT026 BKN056 BKN089 26/24 Q1008
Conditions at: YPCC (COCOS ISL INTL A, AU) observed 2100 UTC 25 April 2019
Temperature: 26.0°C (79°F)
Dewpoint: 24.0°C (75°F) [RH = 89%]
Pressure (altimeter): 29.76 inches Hg (1008.0 mb)
Winds: from the N (360 degrees) at 9 MPH (8 knots; 4.1 m/s)
Visibility: 6 or more miles (10+ km)
Ceiling: 5600 feet AGL
Clouds: scattered clouds at 2600 feet AGL
broken clouds at 5600 feet AGL
broken clouds at 8900 feet AGL
Weather: no significant weather observed at this time

METAR text: YPCC 252050Z AUTO 35007KT 6000 // SCT024 SCT036 BKN056 26/24 Q1008
Conditions at: YPCC (COCOS ISL INTL A, AU) observed 2050 UTC 25 April 2019
Temperature: 26.0°C (79°F)
Dewpoint: 24.0°C (75°F) [RH = 89%]
Pressure (altimeter): 29.76 inches Hg (1008.0 mb)
Winds: from the N (350 degrees) at 8 MPH (7 knots; 3.6 m/s)
Visibility: 4 miles ( 6 km)
Ceiling: 5600 feet AGL
Clouds: scattered clouds at 2400 feet AGL
scattered clouds at 3600 feet AGL
broken clouds at 5600 feet AGL
Weather: no significant weather observed at this time

METAR text: YPCC 252030Z AUTO 01009KT 9999 // SCT029 SCT033 27/24 Q1007
Conditions at: YPCC (COCOS ISL INTL A, AU) observed 2030 UTC 25 April 2019
Temperature: 27.0°C (81°F)
Dewpoint: 24.0°C (75°F) [RH = 84%]
Pressure (altimeter): 29.73 inches Hg (1007.0 mb)
Winds: from the N (10 degrees) at 10 MPH (9 knots; 4.6 m/s)
Visibility: 6 or more miles (10+ km)
Ceiling: at least 12,000 feet AGL
Clouds: scattered clouds at 2900 feet AGL
scattered clouds at 3300 feet AGL
Weather: no significant weather observed at this time

METAR text: YPCC 252000Z AUTO 36008KT 9999 // SCT030 SCT037 BKN083 27/24 Q1008
Conditions at: YPCC (COCOS ISL INTL A, AU) observed 2000 UTC 25 April 2019
Temperature: 27.0°C (81°F)
Dewpoint: 24.0°C (75°F) [RH = 84%]
Pressure (altimeter): 29.76 inches Hg (1008.0 mb)
Winds: from the N (360 degrees) at 9 MPH (8 knots; 4.1 m/s)
Visibility: 6 or more miles (10+ km)
Ceiling: 8300 feet AGL
Clouds: scattered clouds at 3000 feet AGL
scattered clouds at 3700 feet AGL
broken clouds at 8300 feet AGL
Weather: no significant weather observed at this time

METAR text: YPCC 251930Z AUTO 35008KT 9999 // SCT021 SCT030 SCT035 27/24 Q1008
Conditions at: YPCC (COCOS ISL INTL A, AU) observed 1930 UTC 25 April 2019
Temperature: 27.0°C (81°F)
Dewpoint: 24.0°C (75°F) [RH = 84%]
Pressure (altimeter): 29.76 inches Hg (1008.0 mb)
Winds: from the N (350 degrees) at 9 MPH (8 knots; 4.1 m/s)
Visibility: 6 or more miles (10+ km)
Ceiling: at least 12,000 feet AGL
Clouds: scattered clouds at 2100 feet AGL
scattered clouds at 3000 feet AGL
scattered clouds at 3500 feet AGL
Weather: no significant weather observed at this time

METAR text: YPCC 251900Z AUTO 34009KT 9999 // NCD 27/23 Q1008 RF00.0/032.2
Conditions at: YPCC (COCOS ISL INTL A, AU) observed 1900 UTC 25 April 2019
Temperature: 27.0°C (81°F)
Dewpoint: 23.0°C (73°F) [RH = 79%]
Pressure (altimeter): 29.76 inches Hg (1008.0 mb)
Winds: from the NNW (340 degrees) at 10 MPH (9 knots; 4.6 m/s)
Visibility: 6 or more miles (10+ km)
Ceiling: at least 12,000 feet AGL
Clouds: sky clear below 12,000 feet AGL
Weather: no significant weather observed at this time

METAR text: YPCC 251830Z AUTO 34009KT 9999 // NCD 26/23 Q1008 RF00.0/032.2
Conditions at: YPCC (COCOS ISL INTL A, AU) observed 1830 UTC 25 April 2019
Temperature: 26.0°C (79°F)
Dewpoint: 23.0°C (73°F) [RH = 84%]
Pressure (altimeter): 29.76 inches Hg (1008.0 mb)
Winds: from the NNW (340 degrees) at 10 MPH (9 knots; 4.6 m/s)
Visibility: 6 or more miles (10+ km)
Ceiling: at least 12,000 feet AGL
Clouds: sky clear below 12,000 feet AGL
Weather: no significant weather observed at this time

METAR text: YPCC 251800Z AUTO 36007KT 9999 // SCT027 27/23 Q1009 RF00.0/032.2
Conditions at: YPCC (COCOS ISL INTL A, AU) observed 1800 UTC 25 April 2019
Temperature: 27.0°C (81°F)
Dewpoint: 23.0°C (73°F) [RH = 79%]
Pressure (altimeter): 29.79 inches Hg (1009.0 mb)
Winds: from the N (360 degrees) at 8 MPH (7 knots; 3.6 m/s)
Visibility: 6 or more miles (10+ km)
Ceiling: at least 12,000 feet AGL
Clouds: scattered clouds at 2700 feet AGL
Weather: no significant weather observed at this time

METAR text: YPCC 251730Z AUTO 36008KT 9999 // NCD 26/23 Q1009 RF00.0/032.2
Conditions at: YPCC (COCOS ISL INTL A, AU) observed 1730 UTC 25 April 2019
Temperature: 26.0°C (79°F)
Dewpoint: 23.0°C (73°F) [RH = 84%]
Pressure (altimeter): 29.79 inches Hg (1009.0 mb)
Winds: from the N (360 degrees) at 9 MPH (8 knots; 4.1 m/s)
Visibility: 6 or more miles (10+ km)
Ceiling: at least 12,000 feet AGL
Clouds: sky clear below 12,000 feet AGL
Weather: no significant weather observed at this time

METAR text: YPCC 251700Z AUTO 35008KT 9999 // NCD 26/23 Q1009 RF00.0/032.2
Conditions at: YPCC (COCOS ISL INTL A, AU) observed 1700 UTC 25 April 2019
Temperature: 26.0°C (79°F)
Dewpoint: 23.0°C (73°F) [RH = 84%]
Pressure (altimeter): 29.79 inches Hg (1009.0 mb)
Winds: from the N (350 degrees) at 9 MPH (8 knots; 4.1 m/s)
Visibility: 6 or more miles (10+ km)
Ceiling: at least 12,000 feet AGL
Clouds: sky clear below 12,000 feet AGL
Weather: no significant weather observed at this time

METAR text: YPCC 251630Z AUTO 35008KT 9999 // SCT065 SCT081 BKN100 25/22 Q1010
Conditions at: YPCC (COCOS ISL INTL A, AU) observed 1630 UTC 25 April 2019
Temperature: 25.0°C (77°F)
Dewpoint: 22.0°C (72°F) [RH = 83%]
Pressure (altimeter): 29.82 inches Hg (1010.0 mb)
Winds: from the N (350 degrees) at 9 MPH (8 knots; 4.1 m/s)
Visibility: 6 or more miles (10+ km)
Ceiling: 10000 feet AGL
Clouds: scattered clouds at 6500 feet AGL
scattered clouds at 8100 feet AGL
broken clouds at 10000 feet AGL
Weather: no significant weather observed at this time

METAR text: YPCC 251600Z AUTO 35011KT 9999 // BKN105 25/22 Q1010 RF00.0/032.2
Conditions at: YPCC (COCOS ISL INTL A, AU) observed 1600 UTC 25 April 2019
Temperature: 25.0°C (77°F)
Dewpoint: 22.0°C (72°F) [RH = 83%]
Pressure (altimeter): 29.82 inches Hg (1010.0 mb)
Winds: from the N (350 degrees) at 13 MPH (11 knots; 5.7 m/s)
Visibility: 6 or more miles (10+ km)
Ceiling: 10500 feet AGL
Clouds: broken clouds at 10500 feet AGL
Weather: no significant weather observed at this time

METAR text: YPCC 251543Z AUTO 35009KT 9999 // OVC115 25/23 Q1010 RF00/0/032/2
Conditions at: YPCC (COCOS ISL INTL A, AU) observed 1543 UTC 25 April 2019
Temperature: 25.0°C (77°F)
Dewpoint: 23.0°C (73°F) [RH = 89%]
Pressure (altimeter): 29.82 inches Hg (1010.0 mb)
Winds: from the N (350 degrees) at 10 MPH (9 knots; 4.6 m/s)
Visibility: 6 or more miles (10+ km)
Ceiling: 11500 feet AGL
Clouds: overcast cloud deck at 11500 feet AGL
Weather: no significant weather observed at this time

METAR text: YPCC 251530Z AUTO 35009KT 2500 // OVC115 24/23 Q1010 RF00.0/032.2
Conditions at: YPCC (COCOS ISL INTL A, AU) observed 1530 UTC 25 April 2019
Temperature: 24.0°C (75°F)
Dewpoint: 23.0°C (73°F) [RH = 94%]
Pressure (altimeter): 29.82 inches Hg (1010.0 mb)
Winds: from the N (350 degrees) at 10 MPH (9 knots; 4.6 m/s)
Visibility: 1.55 miles (2.49 km)
Ceiling: 11500 feet AGL
Clouds: overcast cloud deck at 11500 feet AGL
Weather: no significant weather observed at this time

METAR text: YPCC 251521Z AUTO 35009KT 3800 // OVC105 24/23 Q1010 RF00/0/032/2
Conditions at: YPCC (COCOS ISL INTL A, AU) observed 1521 UTC 25 April 2019
Temperature: 24.0°C (75°F)
Dewpoint: 23.0°C (73°F) [RH = 94%]
Pressure (altimeter): 29.82 inches Hg (1010.0 mb)
Winds: from the N (350 degrees) at 10 MPH (9 knots; 4.6 m/s)
Visibility: 2.36 miles (3.80 km)
Ceiling: 10500 feet AGL
Clouds: overcast cloud deck at 10500 feet AGL
Weather: no significant weather observed at this time

METAR text: YPCC 251516Z AUTO 35010KT 9999 // OVC105 24/23 Q1010 RF00/0/032/2
Conditions at: YPCC (COCOS ISL INTL A, AU) observed 1516 UTC 25 April 2019
Temperature: 24.0°C (75°F)
Dewpoint: 23.0°C (73°F) [RH = 94%]
Pressure (altimeter): 29.82 inches Hg (1010.0 mb)
Winds: from the N (350 degrees) at 12 MPH (10 knots; 5.1 m/s)
Visibility: 6 or more miles (10+ km)
Ceiling: 10500 feet AGL
Clouds: overcast cloud deck at 10500 feet AGL
Weather: no significant weather observed at this time

METAR text: YPCC 251500Z AUTO 35010KT 1700 // SCT011 SCT085 OVC105 24/24 Q1010
Conditions at: YPCC (COCOS ISL INTL A, AU) observed 1500 UTC 25 April 2019
Temperature: 24.0°C (75°F)
Dewpoint: 24.0°C (75°F) [RH = 100%]
Pressure (altimeter): 29.82 inches Hg (1010.0 mb)
Winds: from the N (350 degrees) at 12 MPH (10 knots; 5.1 m/s)
Visibility: 1.06 miles (1.71 km)
Ceiling: 10500 feet AGL
Clouds: scattered clouds at 1100 feet AGL
scattered clouds at 8500 feet AGL
overcast cloud deck at 10500 feet AGL
Weather: no significant weather observed at this time

METAR text: YPCC 251458Z AUTO 35010KT 1500 // SCT011 SCT085 OVC105 24/24 Q1010
Conditions at: YPCC (COCOS ISL INTL A, AU) observed 1458 UTC 25 April 2019
Temperature: 24.0°C (75°F)
Dewpoint: 24.0°C (75°F) [RH = 100%]
Pressure (altimeter): 29.82 inches Hg (1010.0 mb)
Winds: from the N (350 degrees) at 12 MPH (10 knots; 5.1 m/s)
Visibility: 0.93 miles (1.50 km)
Ceiling: 10500 feet AGL
Clouds: scattered clouds at 1100 feet AGL
scattered clouds at 8500 feet AGL
overcast cloud deck at 10500 feet AGL
Weather: no significant weather observed at this time

METAR text: YPCC 251431Z AUTO 35012KT 4500 // BKN009 BKN026 BKN042 24/24 Q1010
Conditions at: YPCC (COCOS ISL INTL A, AU) observed 1431 UTC 25 April 2019
Temperature: 24.0°C (75°F)
Dewpoint: 24.0°C (75°F) [RH = 100%]
Pressure (altimeter): 29.82 inches Hg (1010.0 mb)
Winds: from the N (350 degrees) at 14 MPH (12 knots; 6.2 m/s)
Visibility: 2.80 miles (4.51 km)
Ceiling: 900 feet AGL
Clouds: broken clouds at 900 feet AGL
broken clouds at 2600 feet AGL
broken clouds at 4200 feet AGL
Weather: no significant weather observed at this time

METAR text: YPCC 251430Z AUTO 34012KT 4400 // BKN009 BKN026 BKN042 24/24 Q1010
Conditions at: YPCC (COCOS ISL INTL A, AU) observed 1430 UTC 25 April 2019
Temperature: 24.0°C (75°F)
Dewpoint: 24.0°C (75°F) [RH = 100%]
Pressure (altimeter): 29.82 inches Hg (1010.0 mb)
Winds: from the NNW (340 degrees) at 14 MPH (12 knots; 6.2 m/s)
Visibility: 2.73 miles (4.39 km)
Ceiling: 900 feet AGL
Clouds: broken clouds at 900 feet AGL
broken clouds at 2600 feet AGL
broken clouds at 4200 feet AGL
Weather: no significant weather observed at this time

METAR text: YPCC 251405Z AUTO 34020G30KT 1100 // SCT006 SCT012 BKN024 24/24 Q1010
Conditions at: YPCC (COCOS ISL INTL A, AU) observed 1405 UTC 25 April 2019
Temperature: 24.0°C (75°F)
Dewpoint: 24.0°C (75°F) [RH = 100%]
Pressure (altimeter): 29.82 inches Hg (1010.0 mb)
Winds: from the NNW (340 degrees) at 23 MPH (20 knots; 10.3 m/s)
gusting to 34 MPH (30 knots; 15.4 m/s)
Visibility: 0.68 miles (1.09 km)
Ceiling: 2400 feet AGL
Clouds: scattered clouds at 600 feet AGL
scattered clouds at 1200 feet AGL
broken clouds at 2400 feet AGL
Weather: no significant weather observed at this time

METAR text: YPCC 251400Z AUTO 34019KT 1600 // SCT006 BKN019 BKN026 24/24 Q1010
Conditions at: YPCC (COCOS ISL INTL A, AU) observed 1400 UTC 25 April 2019
Temperature: 24.0°C (75°F)
Dewpoint: 24.0°C (75°F) [RH = 100%]
Pressure (altimeter): 29.82 inches Hg (1010.0 mb)
Winds: from the NNW (340 degrees) at 22 MPH (19 knots; 9.8 m/s)
Visibility: 0.99 miles (1.59 km)
Ceiling: 1900 feet AGL
Clouds: scattered clouds at 600 feet AGL
broken clouds at 1900 feet AGL
broken clouds at 2600 feet AGL
Weather: no significant weather observed at this time

METAR text: YPCC 251350Z AUTO 35015G26KT 2200 // SCT007 SCT013 BKN021 24/24 Q1010
Conditions at: YPCC (COCOS ISL INTL A, AU) observed 1350 UTC 25 April 2019
Temperature: 24.0°C (75°F)
Dewpoint: 24.0°C (75°F) [RH = 100%]
Pressure (altimeter): 29.82 inches Hg (1010.0 mb)
Winds: from the N (350 degrees) at 17 MPH (15 knots; 7.7 m/s)
gusting to 30 MPH (26 knots; 13.4 m/s)
Visibility: 1.37 miles (2.20 km)
Ceiling: 2100 feet AGL
Clouds: scattered clouds at 700 feet AGL
scattered clouds at 1300 feet AGL
broken clouds at 2100 feet AGL
Weather: no significant weather observed at this time

METAR text: YPCC 251346Z AUTO 36011G25KT 4300 // SCT015 SCT021 BKN026 25/24 Q1010
Conditions at: YPCC (COCOS ISL INTL A, AU) observed 1346 UTC 25 April 2019
Temperature: 25.0°C (77°F)
Dewpoint: 24.0°C (75°F) [RH = 94%]
Pressure (altimeter): 29.82 inches Hg (1010.0 mb)
Winds: from the N (360 degrees) at 13 MPH (11 knots; 5.7 m/s)
gusting to 29 MPH (25 knots; 12.9 m/s)
Visibility: 2.67 miles (4.30 km)
Ceiling: 2600 feet AGL
Clouds: scattered clouds at 1500 feet AGL
scattered clouds at 2100 feet AGL
broken clouds at 2600 feet AGL
Weather: no significant weather observed at this time

METAR text: YPCC 251330Z AUTO 01013KT 9999 // SCT015 BKN020 OVC026 27/25 Q1009
Conditions at: YPCC (COCOS ISL INTL A, AU) observed 1330 UTC 25 April 2019
Temperature: 27.0°C (81°F)
Dewpoint: 25.0°C (77°F) [RH = 89%]
Pressure (altimeter): 29.79 inches Hg (1009.0 mb)
Winds: from the N (10 degrees) at 15 MPH (13 knots; 6.7 m/s)
Visibility: 6 or more miles (10+ km)
Ceiling: 2000 feet AGL
Clouds: scattered clouds at 1500 feet AGL
broken clouds at 2000 feet AGL
overcast cloud deck at 2600 feet AGL
Weather: no significant weather observed at this time

METAR text: YPCC 251304Z AUTO 03013KT 9999 // SCT012 BKN021 BKN027 26/25 Q1009
Conditions at: YPCC (COCOS ISL INTL A, AU) observed 1304 UTC 25 April 2019
Temperature: 26.0°C (79°F)
Dewpoint: 25.0°C (77°F) [RH = 94%]
Pressure (altimeter): 29.79 inches Hg (1009.0 mb)
Winds: from the NNE (30 degrees) at 15 MPH (13 knots; 6.7 m/s)
Visibility: 6 or more miles (10+ km)
Ceiling: 2100 feet AGL
Clouds: scattered clouds at 1200 feet AGL
broken clouds at 2100 feet AGL
broken clouds at 2700 feet AGL
Weather: no significant weather observed at this time

METAR text: YPCC 251300Z AUTO 03012KT 9999 // SCT012 BKN027 OVC034 27/25 Q1009
Conditions at: YPCC (COCOS ISL INTL A, AU) observed 1300 UTC 25 April 2019
Temperature: 27.0°C (81°F)
Dewpoint: 25.0°C (77°F) [RH = 89%]
Pressure (altimeter): 29.79 inches Hg (1009.0 mb)
Winds: from the NNE (30 degrees) at 14 MPH (12 knots; 6.2 m/s)
Visibility: 6 or more miles (10+ km)
Ceiling: 2700 feet AGL
Clouds: scattered clouds at 1200 feet AGL
broken clouds at 2700 feet AGL
overcast cloud deck at 3400 feet AGL
Weather: no significant weather observed at this time

METAR text: YPCC 251249Z AUTO 03014KT 9999 // BKN012 BKN028 OVC039 26/25 Q1009
Conditions at: YPCC (COCOS ISL INTL A, AU) observed 1249 UTC 25 April 2019
Temperature: 26.0°C (79°F)
Dewpoint: 25.0°C (77°F) [RH = 94%]
Pressure (altimeter): 29.79 inches Hg (1009.0 mb)
Winds: from the NNE (30 degrees) at 16 MPH (14 knots; 7.2 m/s)
Visibility: 6 or more miles (10+ km)
Ceiling: 1200 feet AGL
Clouds: broken clouds at 1200 feet AGL
broken clouds at 2800 feet AGL
overcast cloud deck at 3900 feet AGL
Weather: no significant weather observed at this time

METAR text: YPCC 251230Z AUTO 03015KT 9999 // SCT012 BKN039 BKN090 26/25 Q1009
Conditions at: YPCC (COCOS ISL INTL A, AU) observed 1230 UTC 25 April 2019
Temperature: 26.0°C (79°F)
Dewpoint: 25.0°C (77°F) [RH = 94%]
Pressure (altimeter): 29.79 inches Hg (1009.0 mb)
Winds: from the NNE (30 degrees) at 17 MPH (15 knots; 7.7 m/s)
Visibility: 6 or more miles (10+ km)
Ceiling: 3900 feet AGL
Clouds: scattered clouds at 1200 feet AGL
broken clouds at 3900 feet AGL
broken clouds at 9000 feet AGL
Weather: no significant weather observed at this time

METAR text: YPCC 251224Z AUTO 03014KT 9999 // SCT012 SCT043 BKN090 26/25 Q1009
Conditions at: YPCC (COCOS ISL INTL A, AU) observed 1224 UTC 25 April 2019
Temperature: 26.0°C (79°F)
Dewpoint: 25.0°C (77°F) [RH = 94%]
Pressure (altimeter): 29.79 inches Hg (1009.0 mb)
Winds: from the NNE (30 degrees) at 16 MPH (14 knots; 7.2 m/s)
Visibility: 6 or more miles (10+ km)
Ceiling: 9000 feet AGL
Clouds: scattered clouds at 1200 feet AGL
scattered clouds at 4300 feet AGL
broken clouds at 9000 feet AGL
Weather: no significant weather observed at this time

METAR text: YPCC 251200Z AUTO 04012KT 9999 // BKN012 26/25 Q1008 RF00.0/017.8
Conditions at: YPCC (COCOS ISL INTL A, AU) observed 1200 UTC 25 April 2019
Temperature: 26.0°C (79°F)
Dewpoint: 25.0°C (77°F) [RH = 94%]
Pressure (altimeter): 29.76 inches Hg (1008.0 mb)
Winds: from the NE (40 degrees) at 14 MPH (12 knots; 6.2 m/s)
Visibility: 6 or more miles (10+ km)
Ceiling: 1200 feet AGL
Clouds: broken clouds at 1200 feet AGL
Weather: no significant weather observed at this time

METAR text: YPCC 251130Z AUTO 03012KT 9999 // BKN012 BKN019 OVC120 26/24 Q1008
Conditions at: YPCC (COCOS ISL INTL A, AU) observed 1130 UTC 25 April 2019
Temperature: 26.0°C (79°F)
Dewpoint: 24.0°C (75°F) [RH = 89%]
Pressure (altimeter): 29.76 inches Hg (1008.0 mb)
Winds: from the NNE (30 degrees) at 14 MPH (12 knots; 6.2 m/s)
Visibility: 6 or more miles (10+ km)
Ceiling: 1200 feet AGL
Clouds: broken clouds at 1200 feet AGL
broken clouds at 1900 feet AGL
overcast cloud deck at 12000 feet AGL
Weather: no significant weather observed at this time

METAR text: YPCC 251108Z AUTO 03013KT 9999 // BKN014 BKN029 BKN074 25/24 Q1008
Conditions at: YPCC (COCOS ISL INTL A, AU) observed 1108 UTC 25 April 2019
Temperature: 25.0°C (77°F)
Dewpoint: 24.0°C (75°F) [RH = 94%]
Pressure (altimeter): 29.76 inches Hg (1008.0 mb)
Winds: from the NNE (30 degrees) at 15 MPH (13 knots; 6.7 m/s)
Visibility: 6 or more miles (10+ km)
Ceiling: 1400 feet AGL
Clouds: broken clouds at 1400 feet AGL
broken clouds at 2900 feet AGL
broken clouds at 7400 feet AGL
Weather: no significant weather observed at this time

METAR text: YPCC 251100Z AUTO 03014KT 9999 // SCT010 BKN031 BKN044 25/24 Q1008
Conditions at: YPCC (COCOS ISL INTL A, AU) observed 1100 UTC 25 April 2019
Temperature: 25.0°C (77°F)
Dewpoint: 24.0°C (75°F) [RH = 94%]
Pressure (altimeter): 29.76 inches Hg (1008.0 mb)
Winds: from the NNE (30 degrees) at 16 MPH (14 knots; 7.2 m/s)
Visibility: 6 or more miles (10+ km)
Ceiling: 3100 feet AGL
Clouds: scattered clouds at 1000 feet AGL
broken clouds at 3100 feet AGL
broken clouds at 4400 feet AGL
Weather: no significant weather observed at this time

METAR text: YPCC 251030Z AUTO 03016KT 9999 // SCT010 BKN037 BKN064 25/24 Q1008
Conditions at: YPCC (COCOS ISL INTL A, AU) observed 1030 UTC 25 April 2019
Temperature: 25.0°C (77°F)
Dewpoint: 24.0°C (75°F) [RH = 94%]
Pressure (altimeter): 29.76 inches Hg (1008.0 mb)
Winds: from the NNE (30 degrees) at 18 MPH (16 knots; 8.2 m/s)
Visibility: 6 or more miles (10+ km)
Ceiling: 3700 feet AGL
Clouds: scattered clouds at 1000 feet AGL
broken clouds at 3700 feet AGL
broken clouds at 6400 feet AGL
Weather: no significant weather observed at this time

METAR text: YPCC 251000Z AUTO 03012KT 5000 // SCT010 BKN061 OVC071 25/24 Q1008
Conditions at: YPCC (COCOS ISL INTL A, AU) observed 1000 UTC 25 April 2019
Temperature: 25.0°C (77°F)
Dewpoint: 24.0°C (75°F) [RH = 94%]
Pressure (altimeter): 29.76 inches Hg (1008.0 mb)
Winds: from the NNE (30 degrees) at 14 MPH (12 knots; 6.2 m/s)
Visibility: 3 miles ( 5 km)
Ceiling: 6100 feet AGL
Clouds: scattered clouds at 1000 feet AGL
broken clouds at 6100 feet AGL
overcast cloud deck at 7100 feet AGL
Weather: no significant weather observed at this time

METAR text: YPCC 250937Z AUTO 03011KT 6000 // SCT008 SCT057 BKN070 25/24 Q1008
Conditions at: YPCC (COCOS ISL INTL A, AU) observed 0937 UTC 25 April 2019
Temperature: 25.0°C (77°F)
Dewpoint: 24.0°C (75°F) [RH = 94%]
Pressure (altimeter): 29.76 inches Hg (1008.0 mb)
Winds: from the NNE (30 degrees) at 13 MPH (11 knots; 5.7 m/s)
Visibility: 4 miles ( 6 km)
Ceiling: 7000 feet AGL
Clouds: scattered clouds at 800 feet AGL
scattered clouds at 5700 feet AGL
broken clouds at 7000 feet AGL
Weather: no significant weather observed at this time

METAR text: YPCC 250930Z AUTO 03011KT 7000 // SCT008 SCT057 SCT074 24/24 Q1008
Conditions at: YPCC (COCOS ISL INTL A, AU) observed 0930 UTC 25 April 2019
Temperature: 24.0°C (75°F)
Dewpoint: 24.0°C (75°F) [RH = 100%]
Pressure (altimeter): 29.76 inches Hg (1008.0 mb)
Winds: from the NNE (30 degrees) at 13 MPH (11 knots; 5.7 m/s)
Visibility: 4 miles ( 7 km)
Ceiling: at least 12,000 feet AGL
Clouds: scattered clouds at 800 feet AGL
scattered clouds at 5700 feet AGL
scattered clouds at 7400 feet AGL
Weather: no significant weather observed at this time

METAR text: YPCC 250900Z AUTO 02011KT 6000 // SCT087 OVC110 24/24 Q1007
Conditions at: YPCC (COCOS ISL INTL A, AU) observed 0900 UTC 25 April 2019
Temperature: 24.0°C (75°F)
Dewpoint: 24.0°C (75°F) [RH = 100%]
Pressure (altimeter): 29.73 inches Hg (1007.0 mb)
Winds: from the NNE (20 degrees) at 13 MPH (11 knots; 5.7 m/s)
Visibility: 4 miles ( 6 km)
Ceiling: 11000 feet AGL
Clouds: scattered clouds at 8700 feet AGL
overcast cloud deck at 11000 feet AGL
Weather: no significant weather observed at this time

METAR text: YPCC 250830Z AUTO 35009KT 1800 // SCT019 BKN035 OVC043 23/23 Q1007
Conditions at: YPCC (COCOS ISL INTL A, AU) observed 0830 UTC 25 April 2019
Temperature: 23.0°C (73°F)
Dewpoint: 23.0°C (73°F) [RH = 100%]
Pressure (altimeter): 29.73 inches Hg (1007.0 mb)
Winds: from the N (350 degrees) at 10 MPH (9 knots; 4.6 m/s)
Visibility: 1.12 miles (1.80 km)
Ceiling: 3500 feet AGL
Clouds: scattered clouds at 1900 feet AGL
broken clouds at 3500 feet AGL
overcast cloud deck at 4300 feet AGL
Weather: no significant weather observed at this time

METAR text: YPCC 250801Z AUTO 35016G26KT 3800 // SCT010 BKN016 BKN035 24/23 Q1007
Conditions at: YPCC (COCOS ISL INTL A, AU) observed 0801 UTC 25 April 2019
Temperature: 24.0°C (75°F)
Dewpoint: 23.0°C (73°F) [RH = 94%]
Pressure (altimeter): 29.73 inches Hg (1007.0 mb)
Winds: from the N (350 degrees) at 18 MPH (16 knots; 8.2 m/s)
gusting to 30 MPH (26 knots; 13.4 m/s)
Visibility: 2.36 miles (3.80 km)
Ceiling: 1600 feet AGL
Clouds: scattered clouds at 1000 feet AGL
broken clouds at 1600 feet AGL
broken clouds at 3500 feet AGL
Weather: no significant weather observed at this time

METAR text: YPCC 250800Z AUTO 35016KT 4300 // SCT010 BKN016 BKN035 24/23 Q1007
Conditions at: YPCC (COCOS ISL INTL A, AU) observed 0800 UTC 25 April 2019
Temperature: 24.0°C (75°F)
Dewpoint: 23.0°C (73°F) [RH = 94%]
Pressure (altimeter): 29.73 inches Hg (1007.0 mb)
Winds: from the N (350 degrees) at 18 MPH (16 knots; 8.2 m/s)
Visibility: 2.67 miles (4.30 km)
Ceiling: 1600 feet AGL
Clouds: scattered clouds at 1000 feet AGL
broken clouds at 1600 feet AGL
broken clouds at 3500 feet AGL
Weather: no significant weather observed at this time

METAR text: YPCC 250758Z AUTO 35016KT 6000 // SCT010 BKN016 BKN035 24/23 Q1008
Conditions at: YPCC (COCOS ISL INTL A, AU) observed 0758 UTC 25 April 2019
Temperature: 24.0°C (75°F)
Dewpoint: 23.0°C (73°F) [RH = 94%]
Pressure (altimeter): 29.76 inches Hg (1008.0 mb)
Winds: from the N (350 degrees) at 18 MPH (16 knots; 8.2 m/s)
Visibility: 4 miles ( 6 km)
Ceiling: 1600 feet AGL
Clouds: scattered clouds at 1000 feet AGL
broken clouds at 1600 feet AGL
broken clouds at 3500 feet AGL
Weather: no significant weather observed at this time

METAR text: YPCC 250730Z AUTO 05012KT 9999 // BKN053 29/25 Q1007 RF00.0/000.2
Conditions at: YPCC (COCOS ISL INTL A, AU) observed 0730 UTC 25 April 2019
Temperature: 29.0°C (84°F)
Dewpoint: 25.0°C (77°F) [RH = 79%]
Pressure (altimeter): 29.73 inches Hg (1007.0 mb)
Winds: from the NE (50 degrees) at 14 MPH (12 knots; 6.2 m/s)
Visibility: 6 or more miles (10+ km)
Ceiling: 5300 feet AGL
Clouds: broken clouds at 5300 feet AGL
Weather: no significant weather observed at this time

METAR text: YPCC 250700Z AUTO 05012KT 9999 // SCT017 SCT055 BKN062 29/25 Q1007
Conditions at: YPCC (COCOS ISL INTL A, AU) observed 0700 UTC 25 April 2019
Temperature: 29.0°C (84°F)
Dewpoint: 25.0°C (77°F) [RH = 79%]
Pressure (altimeter): 29.73 inches Hg (1007.0 mb)
Winds: from the NE (50 degrees) at 14 MPH (12 knots; 6.2 m/s)
Visibility: 6 or more miles (10+ km)
Ceiling: 6200 feet AGL
Clouds: scattered clouds at 1700 feet AGL
scattered clouds at 5500 feet AGL
broken clouds at 6200 feet AGL
Weather: no significant weather observed at this time

METAR text: YPCC 250630Z AUTO 06012KT 9999 // SCT017 BKN074 BKN084 28/25 Q1007
Conditions at: YPCC (COCOS ISL INTL A, AU) observed 0630 UTC 25 April 2019
Temperature: 28.0°C (82°F)
Dewpoint: 25.0°C (77°F) [RH = 84%]
Pressure (altimeter): 29.73 inches Hg (1007.0 mb)
Winds: from the ENE (60 degrees) at 14 MPH (12 knots; 6.2 m/s)
Visibility: 6 or more miles (10+ km)
Ceiling: 7400 feet AGL
Clouds: scattered clouds at 1700 feet AGL
broken clouds at 7400 feet AGL
broken clouds at 8400 feet AGL
Weather: no significant weather observed at this time

METAR text: YPCC 250600Z AUTO 06011KT 9999 // SCT015 29/25 Q1008 RF00.0/000.2
Conditions at: YPCC (COCOS ISL INTL A, AU) observed 0600 UTC 25 April 2019
Temperature: 29.0°C (84°F)
Dewpoint: 25.0°C (77°F) [RH = 79%]
Pressure (altimeter): 29.76 inches Hg (1008.0 mb)
Winds: from the ENE (60 degrees) at 13 MPH (11 knots; 5.7 m/s)
Visibility: 6 or more miles (10+ km)
Ceiling: at least 12,000 feet AGL
Clouds: scattered clouds at 1500 feet AGL
Weather: no significant weather observed at this time

METAR text: YPCC 250530Z AUTO 06011KT 9999 // NCD 29/25 Q1008 RF00.0/000.2
Conditions at: YPCC (COCOS ISL INTL A, AU) observed 0530 UTC 25 April 2019
Temperature: 29.0°C (84°F)
Dewpoint: 25.0°C (77°F) [RH = 79%]
Pressure (altimeter): 29.76 inches Hg (1008.0 mb)
Winds: from the ENE (60 degrees) at 13 MPH (11 knots; 5.7 m/s)
Visibility: 6 or more miles (10+ km)
Ceiling: at least 12,000 feet AGL
Clouds: sky clear below 12,000 feet AGL
Weather: no significant weather observed at this time

METAR text: YPCC 250500Z AUTO 05010KT 9999 // SCT017 28/25 Q1008 RF00.2/000.2
Conditions at: YPCC (COCOS ISL INTL A, AU) observed 0500 UTC 25 April 2019
Temperature: 28.0°C (82°F)
Dewpoint: 25.0°C (77°F) [RH = 84%]
Pressure (altimeter): 29.76 inches Hg (1008.0 mb)
Winds: from the NE (50 degrees) at 12 MPH (10 knots; 5.1 m/s)
Visibility: 6 or more miles (10+ km)
Ceiling: at least 12,000 feet AGL
Clouds: scattered clouds at 1700 feet AGL
Weather: no significant weather observed at this time

METAR text: YPCC 250430Z AUTO 03010KT 9999 // SCT017 SCT120 28/25 Q1008
Conditions at: YPCC (COCOS ISL INTL A, AU) observed 0430 UTC 25 April 2019
Temperature: 28.0°C (82°F)
Dewpoint: 25.0°C (77°F) [RH = 84%]
Pressure (altimeter): 29.76 inches Hg (1008.0 mb)
Winds: from the NNE (30 degrees) at 12 MPH (10 knots; 5.1 m/s)
Visibility: 6 or more miles (10+ km)
Ceiling: at least 12,000 feet AGL
Clouds: scattered clouds at 1700 feet AGL
scattered clouds at 12000 feet AGL
Weather: no significant weather observed at this time

METAR text: YPCC 250400Z AUTO 03013KT 9999 // SCT035 SCT105 27/24 Q1009
Conditions at: YPCC (COCOS ISL INTL A, AU) observed 0400 UTC 25 April 2019
Temperature: 27.0°C (81°F)
Dewpoint: 24.0°C (75°F) [RH = 84%]
Pressure (altimeter): 29.79 inches Hg (1009.0 mb)
Winds: from the NNE (30 degrees) at 15 MPH (13 knots; 6.7 m/s)
Visibility: 6 or more miles (10+ km)
Ceiling: at least 12,000 feet AGL
Clouds: scattered clouds at 3500 feet AGL
scattered clouds at 10500 feet AGL
Weather: no significant weather observed at this time

METAR text: YPCC 250330Z AUTO 03014KT 9999 // BKN066 BKN078 27/24 Q1009
Conditions at: YPCC (COCOS ISL INTL A, AU) observed 0330 UTC 25 April 2019
Temperature: 27.0°C (81°F)
Dewpoint: 24.0°C (75°F) [RH = 84%]
Pressure (altimeter): 29.79 inches Hg (1009.0 mb)
Winds: from the NNE (30 degrees) at 16 MPH (14 knots; 7.2 m/s)
Visibility: 6 or more miles (10+ km)
Ceiling: 6600 feet AGL
Clouds: broken clouds at 6600 feet AGL
broken clouds at 7800 feet AGL
Weather: no significant weather observed at this time

METAR text: YPCC 250300Z AUTO 04012KT 9000 // SCT017 BKN028 OVC098 27/25 Q1009
Conditions at: YPCC (COCOS ISL INTL A, AU) observed 0300 UTC 25 April 2019
Temperature: 27.0°C (81°F)
Dewpoint: 25.0°C (77°F) [RH = 89%]
Pressure (altimeter): 29.79 inches Hg (1009.0 mb)
Winds: from the NE (40 degrees) at 14 MPH (12 knots; 6.2 m/s)
Visibility: 6 miles ( 9 km)
Ceiling: 2800 feet AGL
Clouds: scattered clouds at 1700 feet AGL
broken clouds at 2800 feet AGL
overcast cloud deck at 9800 feet AGL
Weather: no significant weather observed at this time

METAR text: YPCC 250230Z AUTO 04013KT 9999 // SCT071 BKN092 OVC110 26/24 Q1009
Conditions at: YPCC (COCOS ISL INTL A, AU) observed 0230 UTC 25 April 2019
Temperature: 26.0°C (79°F)
Dewpoint: 24.0°C (75°F) [RH = 89%]
Pressure (altimeter): 29.79 inches Hg (1009.0 mb)
Winds: from the NE (40 degrees) at 15 MPH (13 knots; 6.7 m/s)
Visibility: 6 or more miles (10+ km)
Ceiling: 9200 feet AGL
Clouds: scattered clouds at 7100 feet AGL
broken clouds at 9200 feet AGL
overcast cloud deck at 11000 feet AGL
Weather: no significant weather observed at this time

METAR text: YPCC 250200Z AUTO 02021KT 9999 // SCT009 SCT024 SCT071 26/24 Q1009
Conditions at: YPCC (COCOS ISL INTL A, AU) observed 0200 UTC 25 April 2019
Temperature: 26.0°C (79°F)
Dewpoint: 24.0°C (75°F) [RH = 89%]
Pressure (altimeter): 29.79 inches Hg (1009.0 mb)
Winds: from the NNE (20 degrees) at 24 MPH (21 knots; 10.8 m/s)
Visibility: 6 or more miles (10+ km)
Ceiling: at least 12,000 feet AGL
Clouds: scattered clouds at 900 feet AGL
scattered clouds at 2400 feet AGL
scattered clouds at 7100 feet AGL
Weather: no significant weather observed at this time

METAR text: YPCC 250156Z AUTO 02022KT 9000 // SCT010 SCT024 BKN096 26/24 Q1009
Conditions at: YPCC (COCOS ISL INTL A, AU) observed 0156 UTC 25 April 2019
Temperature: 26.0°C (79°F)
Dewpoint: 24.0°C (75°F) [RH = 89%]
Pressure (altimeter): 29.79 inches Hg (1009.0 mb)
Winds: from the NNE (20 degrees) at 25 MPH (22 knots; 11.3 m/s)
Visibility: 6 miles ( 9 km)
Ceiling: 9600 feet AGL
Clouds: scattered clouds at 1000 feet AGL
scattered clouds at 2400 feet AGL
broken clouds at 9600 feet AGL
Weather: no significant weather observed at this time

METAR text: YPCC 250155Z AUTO 02022KT 9000 // SCT010 SCT024 BKN090 26/24 Q1009
Conditions at: YPCC (COCOS ISL INTL A, AU) observed 0155 UTC 25 April 2019
Temperature: 26.0°C (79°F)
Dewpoint: 24.0°C (75°F) [RH = 89%]
Pressure (altimeter): 29.79 inches Hg (1009.0 mb)
Winds: from the NNE (20 degrees) at 25 MPH (22 knots; 11.3 m/s)
Visibility: 6 miles ( 9 km)
Ceiling: 9000 feet AGL
Clouds: scattered clouds at 1000 feet AGL
scattered clouds at 2400 feet AGL
broken clouds at 9000 feet AGL
Weather: no significant weather observed at this time

METAR text: YPCC 250144Z AUTO 03018G28KT 6000 // BKN014 BKN043 BKN095 26/25 Q1009
Conditions at: YPCC (COCOS ISL INTL A, AU) observed 0144 UTC 25 April 2019
Temperature: 26.0°C (79°F)
Dewpoint: 25.0°C (77°F) [RH = 94%]
Pressure (altimeter): 29.79 inches Hg (1009.0 mb)
Winds: from the NNE (30 degrees) at 21 MPH (18 knots; 9.3 m/s)
gusting to 32 MPH (28 knots; 14.4 m/s)
Visibility: 4 miles ( 6 km)
Ceiling: 1400 feet AGL
Clouds: broken clouds at 1400 feet AGL
broken clouds at 4300 feet AGL
broken clouds at 9500 feet AGL
Weather: no significant weather observed at this time

METAR text: YPCC 250134Z AUTO 06017KT 6000 // SCT008 SCT038 BKN084 26/25 Q1009
Conditions at: YPCC (COCOS ISL INTL A, AU) observed 0134 UTC 25 April 2019
Temperature: 26.0°C (79°F)
Dewpoint: 25.0°C (77°F) [RH = 94%]
Pressure (altimeter): 29.79 inches Hg (1009.0 mb)
Winds: from the ENE (60 degrees) at 20 MPH (17 knots; 8.7 m/s)
Visibility: 4 miles ( 6 km)
Ceiling: 8400 feet AGL
Clouds: scattered clouds at 800 feet AGL
scattered clouds at 3800 feet AGL
broken clouds at 8400 feet AGL
Weather: no significant weather observed at this time

METAR text: YPCC 250114Z AUTO 05016KT 9000 // SCT017 BKN073 BKN100 26/24 Q1008
Conditions at: YPCC (COCOS ISL INTL A, AU) observed 0114 UTC 25 April 2019
Temperature: 26.0°C (79°F)
Dewpoint: 24.0°C (75°F) [RH = 89%]
Pressure (altimeter): 29.76 inches Hg (1008.0 mb)
Winds: from the NE (50 degrees) at 18 MPH (16 knots; 8.2 m/s)
Visibility: 6 miles ( 9 km)
Ceiling: 7300 feet AGL
Clouds: scattered clouds at 1700 feet AGL
broken clouds at 7300 feet AGL
broken clouds at 10000 feet AGL
Weather: no significant weather observed at this time

METAR text: YPCC 250104Z AUTO 05017KT 6000 // SCT010 BKN021 BKN073 26/25 Q1008
Conditions at: YPCC (COCOS ISL INTL A, AU) observed 0104 UTC 25 April 2019
Temperature: 26.0°C (79°F)
Dewpoint: 25.0°C (77°F) [RH = 94%]
Pressure (altimeter): 29.76 inches Hg (1008.0 mb)
Winds: from the NE (50 degrees) at 20 MPH (17 knots; 8.7 m/s)
Visibility: 4 miles ( 6 km)
Ceiling: 2100 feet AGL
Clouds: scattered clouds at 1000 feet AGL
broken clouds at 2100 feet AGL
broken clouds at 7300 feet AGL
Weather: no significant weather observed at this time

METAR text: YPCC 250100Z AUTO 05017KT 6000 // SCT010 BKN021 BKN073 26/25 Q1008
Conditions at: YPCC (COCOS ISL INTL A, AU) observed 0100 UTC 25 April 2019
Temperature: 26.0°C (79°F)
Dewpoint: 25.0°C (77°F) [RH = 94%]
Pressure (altimeter): 29.76 inches Hg (1008.0 mb)
Winds: from the NE (50 degrees) at 20 MPH (17 knots; 8.7 m/s)
Visibility: 4 miles ( 6 km)
Ceiling: 2100 feet AGL
Clouds: scattered clouds at 1000 feet AGL
broken clouds at 2100 feet AGL
broken clouds at 7300 feet AGL
Weather: no significant weather observed at this time

METAR text: YPCC 250037Z AUTO 06020G31KT 3000 // BKN008 BKN018 BKN027 25/24 Q1008
Conditions at: YPCC (COCOS ISL INTL A, AU) observed 0037 UTC 25 April 2019
Temperature: 25.0°C (77°F)
Dewpoint: 24.0°C (75°F) [RH = 94%]
Pressure (altimeter): 29.76 inches Hg (1008.0 mb)
Winds: from the ENE (60 degrees) at 23 MPH (20 knots; 10.3 m/s)
gusting to 36 MPH (31 knots; 15.9 m/s)
Visibility: 1.86 miles (2.99 km)
Ceiling: 800 feet AGL
Clouds: broken clouds at 800 feet AGL
broken clouds at 1800 feet AGL
broken clouds at 2700 feet AGL
Weather: no significant weather observed at this time

METAR text: YPCC 250035Z AUTO 06019KT 2300 // BKN008 BKN017 BKN027 25/25 Q1008
Conditions at: YPCC (COCOS ISL INTL A, AU) observed 0035 UTC 25 April 2019
Temperature: 25.0°C (77°F)
Dewpoint: 25.0°C (77°F) [RH = 100%]
Pressure (altimeter): 29.76 inches Hg (1008.0 mb)
Winds: from the ENE (60 degrees) at 22 MPH (19 knots; 9.8 m/s)
Visibility: 1.43 miles (2.30 km)
Ceiling: 800 feet AGL
Clouds: broken clouds at 800 feet AGL
broken clouds at 1700 feet AGL
broken clouds at 2700 feet AGL
Weather: no significant weather observed at this time

METAR text: YPCC 250030Z AUTO 05018KT 1400 // SCT008 BKN021 BKN040 25/24 Q1008
Conditions at: YPCC (COCOS ISL INTL A, AU) observed 0030 UTC 25 April 2019
Temperature: 25.0°C (77°F)
Dewpoint: 24.0°C (75°F) [RH = 94%]
Pressure (altimeter): 29.76 inches Hg (1008.0 mb)
Winds: from the NE (50 degrees) at 21 MPH (18 knots; 9.3 m/s)
Visibility: 0.87 miles (1.40 km)
Ceiling: 2100 feet AGL
Clouds: scattered clouds at 800 feet AGL
broken clouds at 2100 feet AGL
broken clouds at 4000 feet AGL
Weather: no significant weather observed at this time

METAR text: YPCC 250000Z AUTO 06021KT 6000 // SCT093 BKN115 27/25 Q1008
Conditions at: YPCC (COCOS ISL INTL A, AU) observed 0000 UTC 25 April 2019
Temperature: 27.0°C (81°F)
Dewpoint: 25.0°C (77°F) [RH = 89%]
Pressure (altimeter): 29.76 inches Hg (1008.0 mb)
Winds: from the ENE (60 degrees) at 24 MPH (21 knots; 10.8 m/s)
Visibility: 4 miles ( 6 km)
Ceiling: 11500 feet AGL
Clouds: scattered clouds at 9300 feet AGL
broken clouds at 11500 feet AGL
Weather: no significant weather observed at this time

METAR text: YPCC 242330Z AUTO 07019KT 6000 // BKN065 OVC115 26/25 Q1008
Conditions at: YPCC (COCOS ISL INTL A, AU) observed 2330 UTC 24 April 2019
Temperature: 26.0°C (79°F)
Dewpoint: 25.0°C (77°F) [RH = 94%]
Pressure (altimeter): 29.76 inches Hg (1008.0 mb)
Winds: from the ENE (70 degrees) at 22 MPH (19 knots; 9.8 m/s)
Visibility: 4 miles ( 6 km)
Ceiling: 6500 feet AGL
Clouds: broken clouds at 6500 feet AGL
overcast cloud deck at 11500 feet AGL
Weather: no significant weather observed at this time

METAR text: YPCC 242325Z AUTO 07020KT 6000 // BKN063 BKN087 BKN115 26/25 Q1008
Conditions at: YPCC (COCOS ISL INTL A, AU) observed 2325 UTC 24 April 2019
Temperature: 26.0°C (79°F)
Dewpoint: 25.0°C (77°F) [RH = 94%]
Pressure (altimeter): 29.76 inches Hg (1008.0 mb)
Winds: from the ENE (70 degrees) at 23 MPH (20 knots; 10.3 m/s)
Visibility: 4 miles ( 6 km)
Ceiling: 6300 feet AGL
Clouds: broken clouds at 6300 feet AGL
broken clouds at 8700 feet AGL
broken clouds at 11500 feet AGL
Weather: no significant weather observed at this time

METAR text: YPCC 242300Z AUTO 07023KT 7000 // SCT075 BKN125 26/24 Q1007
Conditions at: YPCC (COCOS ISL INTL A, AU) observed 2300 UTC 24 April 2019
Temperature: 26.0°C (79°F)
Dewpoint: 24.0°C (75°F) [RH = 89%]
Pressure (altimeter): 29.73 inches Hg (1007.0 mb)
Winds: from the ENE (70 degrees) at 26 MPH (23 knots; 11.8 m/s)
Visibility: 4 miles ( 7 km)
Ceiling: 12500 feet AGL
Clouds: scattered clouds at 7500 feet AGL
broken clouds at 12500 feet AGL
Weather: no significant weather observed at this time

METAR text: YPCC 242231Z AUTO 07031KT 7000 // SCT016 SCT039 OVC066 26/24 Q1007
Conditions at: YPCC (COCOS ISL INTL A, AU) observed 2231 UTC 24 April 2019
Temperature: 26.0°C (79°F)
Dewpoint: 24.0°C (75°F) [RH = 89%]
Pressure (altimeter): 29.73 inches Hg (1007.0 mb)
Winds: from the ENE (70 degrees) at 36 MPH (31 knots; 15.9 m/s)
Visibility: 4 miles ( 7 km)
Ceiling: 6600 feet AGL
Clouds: scattered clouds at 1600 feet AGL
scattered clouds at 3900 feet AGL
overcast cloud deck at 6600 feet AGL
Weather: no significant weather observed at this time

METAR text: YPCC 242230Z AUTO 07031KT 8000 // SCT016 SCT039 BKN066 26/24 Q1007
Conditions at: YPCC (COCOS ISL INTL A, AU) observed 2230 UTC 24 April 2019
Temperature: 26.0°C (79°F)
Dewpoint: 24.0°C (75°F) [RH = 89%]
Pressure (altimeter): 29.73 inches Hg (1007.0 mb)
Winds: from the ENE (70 degrees) at 36 MPH (31 knots; 15.9 m/s)
Visibility: 5 miles ( 8 km)
Ceiling: 6600 feet AGL
Clouds: scattered clouds at 1600 feet AGL
scattered clouds at 3900 feet AGL
broken clouds at 6600 feet AGL
Weather: no significant weather observed at this time

METAR text: YPCC 242221Z AUTO 07027G38KT 9999 // BKN016 OVC066 27/25 Q1007
Conditions at: YPCC (COCOS ISL INTL A, AU) observed 2221 UTC 24 April 2019
Temperature: 27.0°C (81°F)
Dewpoint: 25.0°C (77°F) [RH = 89%]
Pressure (altimeter): 29.73 inches Hg (1007.0 mb)
Winds: from the ENE (70 degrees) at 31 MPH (27 knots; 13.9 m/s)
gusting to 44 MPH (38 knots; 19.5 m/s)
Visibility: 6 or more miles (10+ km)
Ceiling: 1600 feet AGL
Clouds: broken clouds at 1600 feet AGL
overcast cloud deck at 6600 feet AGL
Weather: no significant weather observed at this time

METAR text: YPCC 242219Z AUTO 07026KT 9999 // BKN014 OVC066 27/25 Q1007
Conditions at: YPCC (COCOS ISL INTL A, AU) observed 2219 UTC 24 April 2019
Temperature: 27.0°C (81°F)
Dewpoint: 25.0°C (77°F) [RH = 89%]
Pressure (altimeter): 29.73 inches Hg (1007.0 mb)
Winds: from the ENE (70 degrees) at 30 MPH (26 knots; 13.4 m/s)
Visibility: 6 or more miles (10+ km)
Ceiling: 1400 feet AGL
Clouds: broken clouds at 1400 feet AGL
overcast cloud deck at 6600 feet AGL
Weather: no significant weather observed at this time

METAR text: YPCC 242200Z AUTO 07023KT 9999 // SCT014 BKN064 27/25 Q1007
Conditions at: YPCC (COCOS ISL INTL A, AU) observed 2200 UTC 24 April 2019
Temperature: 27.0°C (81°F)
Dewpoint: 25.0°C (77°F) [RH = 89%]
Pressure (altimeter): 29.73 inches Hg (1007.0 mb)
Winds: from the ENE (70 degrees) at 26 MPH (23 knots; 11.8 m/s)
Visibility: 6 or more miles (10+ km)
Ceiling: 6400 feet AGL
Clouds: scattered clouds at 1400 feet AGL
broken clouds at 6400 feet AGL
Weather: no significant weather observed at this time

METAR text: YPCC 242130Z AUTO 08024KT 9999 // SCT058 BKN081 BKN120 27/25 Q1007
Conditions at: YPCC (COCOS ISL INTL A, AU) observed 2130 UTC 24 April 2019
Temperature: 27.0°C (81°F)
Dewpoint: 25.0°C (77°F) [RH = 89%]
Pressure (altimeter): 29.73 inches Hg (1007.0 mb)
Winds: from the E (80 degrees) at 28 MPH (24 knots; 12.3 m/s)
Visibility: 6 or more miles (10+ km)
Ceiling: 8100 feet AGL
Clouds: scattered clouds at 5800 feet AGL
broken clouds at 8100 feet AGL
broken clouds at 12000 feet AGL
Weather: no significant weather observed at this time

METAR text: YPCC 242124Z AUTO 07023KT 9999 // SCT058 BKN083 OVC120 27/25 Q1007
Conditions at: YPCC (COCOS ISL INTL A, AU) observed 2124 UTC 24 April 2019
Temperature: 27.0°C (81°F)
Dewpoint: 25.0°C (77°F) [RH = 89%]
Pressure (altimeter): 29.73 inches Hg (1007.0 mb)
Winds: from the ENE (70 degrees) at 26 MPH (23 knots; 11.8 m/s)
Visibility: 6 or more miles (10+ km)
Ceiling: 8300 feet AGL
Clouds: scattered clouds at 5800 feet AGL
broken clouds at 8300 feet AGL
overcast cloud deck at 12000 feet AGL
Weather: no significant weather observed at this time

METAR text: YPCC 242100Z AUTO 08027KT 7000 // SCT030 BKN052 BKN066 26/24 Q1007
Conditions at: YPCC (COCOS ISL INTL A, AU) observed 2100 UTC 24 April 2019
Temperature: 26.0°C (79°F)
Dewpoint: 24.0°C (75°F) [RH = 89%]
Pressure (altimeter): 29.73 inches Hg (1007.0 mb)
Winds: from the E (80 degrees) at 31 MPH (27 knots; 13.9 m/s)
Visibility: 4 miles ( 7 km)
Ceiling: 5200 feet AGL
Clouds: scattered clouds at 3000 feet AGL
broken clouds at 5200 feet AGL
broken clouds at 6600 feet AGL
Weather: no significant weather observed at this time

METAR text: YPCC 242038Z AUTO 08031KT 5000 // SCT016 BKN027 BKN034 26/24 Q1007
Conditions at: YPCC (COCOS ISL INTL A, AU) observed 2038 UTC 24 April 2019
Temperature: 26.0°C (79°F)
Dewpoint: 24.0°C (75°F) [RH = 89%]
Pressure (altimeter): 29.73 inches Hg (1007.0 mb)
Winds: from the E (80 degrees) at 36 MPH (31 knots; 15.9 m/s)
Visibility: 3 miles ( 5 km)
Ceiling: 2700 feet AGL
Clouds: scattered clouds at 1600 feet AGL
broken clouds at 2700 feet AGL
broken clouds at 3400 feet AGL
Weather: no significant weather observed at this time

METAR text: YPCC 242035Z AUTO 08031KT 9999 // SCT016 BKN024 BKN034 27/23 Q1007
Conditions at: YPCC (COCOS ISL INTL A, AU) observed 2035 UTC 24 April 2019
Temperature: 27.0°C (81°F)
Dewpoint: 23.0°C (73°F) [RH = 79%]
Pressure (altimeter): 29.73 inches Hg (1007.0 mb)
Winds: from the E (80 degrees) at 36 MPH (31 knots; 15.9 m/s)
Visibility: 6 or more miles (10+ km)
Ceiling: 2400 feet AGL
Clouds: scattered clouds at 1600 feet AGL
broken clouds at 2400 feet AGL
broken clouds at 3400 feet AGL
Weather: no significant weather observed at this time

METAR text: YPCC 242030Z AUTO 08028KT 9999 // SCT016 BKN023 BKN034 27/24 Q1007
Conditions at: YPCC (COCOS ISL INTL A, AU) observed 2030 UTC 24 April 2019
Temperature: 27.0°C (81°F)
Dewpoint: 24.0°C (75°F) [RH = 84%]
Pressure (altimeter): 29.73 inches Hg (1007.0 mb)
Winds: from the E (80 degrees) at 32 MPH (28 knots; 14.4 m/s)
Visibility: 6 or more miles (10+ km)
Ceiling: 2300 feet AGL
Clouds: scattered clouds at 1600 feet AGL
broken clouds at 2300 feet AGL
broken clouds at 3400 feet AGL
Weather: no significant weather observed at this time

METAR text: YPCC 242017Z AUTO 08024KT 9999 // BKN014 27/25 Q1007 RF00/0/012/6
Conditions at: YPCC (COCOS ISL INTL A, AU) observed 2017 UTC 24 April 2019
Temperature: 27.0°C (81°F)
Dewpoint: 25.0°C (77°F) [RH = 89%]
Pressure (altimeter): 29.73 inches Hg (1007.0 mb)
Winds: from the E (80 degrees) at 28 MPH (24 knots; 12.3 m/s)
Visibility: 6 or more miles (10+ km)
Ceiling: 1400 feet AGL
Clouds: broken clouds at 1400 feet AGL
Weather: no significant weather observed at this time

METAR text: YPCC 242000Z AUTO 09023KT 9999 // SCT014 SCT076 27/25 Q1007
Conditions at: YPCC (COCOS ISL INTL A, AU) observed 2000 UTC 24 April 2019
Temperature: 27.0°C (81°F)
Dewpoint: 25.0°C (77°F) [RH = 89%]
Pressure (altimeter): 29.73 inches Hg (1007.0 mb)
Winds: from the E (90 degrees) at 26 MPH (23 knots; 11.8 m/s)
Visibility: 6 or more miles (10+ km)
Ceiling: at least 12,000 feet AGL
Clouds: scattered clouds at 1400 feet AGL
scattered clouds at 7600 feet AGL
Weather: no significant weather observed at this time

METAR text: YPCC 241930Z AUTO 08024KT 9999 // SCT016 BKN062 OVC071 26/25 Q1007
Conditions at: YPCC (COCOS ISL INTL A, AU) observed 1930 UTC 24 April 2019
Temperature: 26.0°C (79°F)
Dewpoint: 25.0°C (77°F) [RH = 94%]
Pressure (altimeter): 29.73 inches Hg (1007.0 mb)
Winds: from the E (80 degrees) at 28 MPH (24 knots; 12.3 m/s)
Visibility: 6 or more miles (10+ km)
Ceiling: 6200 feet AGL
Clouds: scattered clouds at 1600 feet AGL
broken clouds at 6200 feet AGL
overcast cloud deck at 7100 feet AGL
Weather: no significant weather observed at this time

METAR text: YPCC 241900Z AUTO 08026KT 9999 // BKN020 BKN065 BKN075 27/25 Q1008
Conditions at: YPCC (COCOS ISL INTL A, AU) observed 1900 UTC 24 April 2019
Temperature: 27.0°C (81°F)
Dewpoint: 25.0°C (77°F) [RH = 89%]
Pressure (altimeter): 29.76 inches Hg (1008.0 mb)
Winds: from the E (80 degrees) at 30 MPH (26 knots; 13.4 m/s)
Visibility: 6 or more miles (10+ km)
Ceiling: 2000 feet AGL
Clouds: broken clouds at 2000 feet AGL
broken clouds at 6500 feet AGL
broken clouds at 7500 feet AGL
Weather: no significant weather observed at this time

METAR text: YPCC 241830Z AUTO 09022KT 7000 // SCT017 BKN077 OVC115 26/25 Q1008
Conditions at: YPCC (COCOS ISL INTL A, AU) observed 1830 UTC 24 April 2019
Temperature: 26.0°C (79°F)
Dewpoint: 25.0°C (77°F) [RH = 94%]
Pressure (altimeter): 29.76 inches Hg (1008.0 mb)
Winds: from the E (90 degrees) at 25 MPH (22 knots; 11.3 m/s)
Visibility: 4 miles ( 7 km)
Ceiling: 7700 feet AGL
Clouds: scattered clouds at 1700 feet AGL
broken clouds at 7700 feet AGL
overcast cloud deck at 11500 feet AGL
Weather: no significant weather observed at this time

METAR text: YPCC 241800Z AUTO 08024KT 9999 // SCT012 BKN017 BKN077 26/25 Q1009
Conditions at: YPCC (COCOS ISL INTL A, AU) observed 1800 UTC 24 April 2019
Temperature: 26.0°C (79°F)
Dewpoint: 25.0°C (77°F) [RH = 94%]
Pressure (altimeter): 29.79 inches Hg (1009.0 mb)
Winds: from the E (80 degrees) at 28 MPH (24 knots; 12.3 m/s)
Visibility: 6 or more miles (10+ km)
Ceiling: 1700 feet AGL
Clouds: scattered clouds at 1200 feet AGL
broken clouds at 1700 feet AGL
broken clouds at 7700 feet AGL
Weather: no significant weather observed at this time

METAR text: YPCC 241731Z AUTO 09023KT 9999 // SCT008 SCT033 SCT048 26/25 Q1009
Conditions at: YPCC (COCOS ISL INTL A, AU) observed 1731 UTC 24 April 2019
Temperature: 26.0°C (79°F)
Dewpoint: 25.0°C (77°F) [RH = 94%]
Pressure (altimeter): 29.79 inches Hg (1009.0 mb)
Winds: from the E (90 degrees) at 26 MPH (23 knots; 11.8 m/s)
Visibility: 6 or more miles (10+ km)
Ceiling: at least 12,000 feet AGL
Clouds: scattered clouds at 800 feet AGL
scattered clouds at 3300 feet AGL
scattered clouds at 4800 feet AGL
Weather: no significant weather observed at this time

METAR text: YPCC 241730Z AUTO 09024KT 9999 // SCT008 SCT033 SCT048 26/25 Q1009
Conditions at: YPCC (COCOS ISL INTL A, AU) observed 1730 UTC 24 April 2019
Temperature: 26.0°C (79°F)
Dewpoint: 25.0°C (77°F) [RH = 94%]
Pressure (altimeter): 29.79 inches Hg (1009.0 mb)
Winds: from the E (90 degrees) at 28 MPH (24 knots; 12.3 m/s)
Visibility: 6 or more miles (10+ km)
Ceiling: at least 12,000 feet AGL
Clouds: scattered clouds at 800 feet AGL
scattered clouds at 3300 feet AGL
scattered clouds at 4800 feet AGL
Weather: no significant weather observed at this time

METAR text: YPCC 241718Z AUTO 09026KT 5000 // BKN008 BKN035 OVC050 26/25 Q1009
Conditions at: YPCC (COCOS ISL INTL A, AU) observed 1718 UTC 24 April 2019
Temperature: 26.0°C (79°F)
Dewpoint: 25.0°C (77°F) [RH = 94%]
Pressure (altimeter): 29.79 inches Hg (1009.0 mb)
Winds: from the E (90 degrees) at 30 MPH (26 knots; 13.4 m/s)
Visibility: 3 miles ( 5 km)
Ceiling: 800 feet AGL
Clouds: broken clouds at 800 feet AGL
broken clouds at 3500 feet AGL
overcast cloud deck at 5000 feet AGL
Weather: no significant weather observed at this time

METAR text: YPCC 241712Z AUTO 09028G38KT 2500 // SCT008 BKN015 BKN029 26/25 Q1009
Conditions at: YPCC (COCOS ISL INTL A, AU) observed 1712 UTC 24 April 2019
Temperature: 26.0°C (79°F)
Dewpoint: 25.0°C (77°F) [RH = 94%]
Pressure (altimeter): 29.79 inches Hg (1009.0 mb)
Winds: from the E (90 degrees) at 32 MPH (28 knots; 14.4 m/s)
gusting to 44 MPH (38 knots; 19.5 m/s)
Visibility: 1.55 miles (2.49 km)
Ceiling: 1500 feet AGL
Clouds: scattered clouds at 800 feet AGL
broken clouds at 1500 feet AGL
broken clouds at 2900 feet AGL
Weather: no significant weather observed at this time

METAR text: YPCC 241700Z AUTO 08032KT 0450 // SCT014 BKN036 BKN051 25/25 Q1009
Conditions at: YPCC (COCOS ISL INTL A, AU) observed 1700 UTC 24 April 2019
Temperature: 25.0°C (77°F)
Dewpoint: 25.0°C (77°F) [RH = 100%]
Pressure (altimeter): 29.79 inches Hg (1009.0 mb)
Winds: from the E (80 degrees) at 37 MPH (32 knots; 16.5 m/s)
Visibility: 0.28 miles (0.45 km)
Ceiling: 3600 feet AGL
Clouds: scattered clouds at 1400 feet AGL
broken clouds at 3600 feet AGL
broken clouds at 5100 feet AGL
Weather: no significant weather observed at this time

METAR text: YPCC 241648Z AUTO 09030G41KT 1700 // SCT015 BKN032 26/25 Q1009
Conditions at: YPCC (COCOS ISL INTL A, AU) observed 1648 UTC 24 April 2019
Temperature: 26.0°C (79°F)
Dewpoint: 25.0°C (77°F) [RH = 94%]
Pressure (altimeter): 29.79 inches Hg (1009.0 mb)
Winds: from the E (90 degrees) at 34 MPH (30 knots; 15.4 m/s)
gusting to 47 MPH (41 knots; 21.1 m/s)
Visibility: 1.06 miles (1.71 km)
Ceiling: 3200 feet AGL
Clouds: scattered clouds at 1500 feet AGL
broken clouds at 3200 feet AGL
Weather: no significant weather observed at this time

METAR text: YPCC 241647Z AUTO 09029KT 3400 // SCT017 BKN032 26/25 Q1009
Conditions at: YPCC (COCOS ISL INTL A, AU) observed 1647 UTC 24 April 2019
Temperature: 26.0°C (79°F)
Dewpoint: 25.0°C (77°F) [RH = 94%]
Pressure (altimeter): 29.79 inches Hg (1009.0 mb)
Winds: from the E (90 degrees) at 33 MPH (29 knots; 14.9 m/s)
Visibility: 2.11 miles (3.40 km)
Ceiling: 3200 feet AGL
Clouds: scattered clouds at 1700 feet AGL
broken clouds at 3200 feet AGL
Weather: no significant weather observed at this time

METAR text: YPCC 241645Z AUTO 10015G28KT 9999 // SCT017 BKN032 BKN063 27/25 Q1009
Conditions at: YPCC (COCOS ISL INTL A, AU) observed 1645 UTC 24 April 2019
Temperature: 27.0°C (81°F)
Dewpoint: 25.0°C (77°F) [RH = 89%]
Pressure (altimeter): 29.79 inches Hg (1009.0 mb)
Winds: from the E (100 degrees) at 17 MPH (15 knots; 7.7 m/s)
gusting to 32 MPH (28 knots; 14.4 m/s)
Visibility: 6 or more miles (10+ km)
Ceiling: 3200 feet AGL
Clouds: scattered clouds at 1700 feet AGL
broken clouds at 3200 feet AGL
broken clouds at 6300 feet AGL
Weather: no significant weather observed at this time

Forecast for: YPCC (COCOS ISL INTL A, AU)
Text: TAF YPCC 252258Z 2600/2624 02012KT 9999 -SHRA SCT010 SCT025
Forecast period: 0000 UTC 26 April 2019 to 0000 UTC 27 April 2019
Forecast type: FROM: standard forecast or significant change
Winds: from the NNE (20 degrees) at 14 MPH (12 knots; 6.2 m/s)
Visibility: 6 or more miles 10+ km)
Ceiling: at least 12,000 feet AGL
Clouds: scattered clouds at 1000 feet AGL
scattered clouds at 2500 feet AGL
Weather: -SHRA  (light rain showers)
Text: TEMPO 2600/2624 VRB25G35KT 1000 TSRA BKN008 FEW020CB
Forecast period: 0000 UTC 26 April 2019 to 0000 UTC 27 April 2019
Forecast type: TEMPORARY: The following changes expected for less than half the time period
Winds: variable direction winds at 29 MPH (25 knots; 12.9 m/s)
gusting to 40 MPH (35 knots; 18.0 m/s)
Visibility: 0.62 miles (1.00 km)
Ceiling: 800 feet AGL
Clouds: broken clouds at 800 feet AGL
few clouds at 2000 feet AGL
Weather: TSRA  (rain associated with thunderstorm(s))